Terminal Aerodrome Forecast
Issued by NWS

Home | Current Version | Previous Version | Text Only | Print | Product List | Glossary On
Versions: 1 2 3 4 5 6 7 8 9 10 11 12 13 14 15 16 17 18 19 20
000
FTUS41 KBTV 180538
TAFSLK
TAF
KSLK 180538Z 1806/1906 00000KT P6SM OVC100
     FM180800 14006KT 5SM -SHRA BR BKN025 OVC045 WS020/21035KT
     FM181300 16007KT P6SM -SHRA BKN015 OVC025
     FM181800 20009KT P6SM VCSH BKN025 BKN035
     FM190200 22006KT P6SM BKN035=

USA.gov is the U.S. government's official web portal to all federal, state and local government web resources and services.